createdAt,value
2019-04-07T00:00:12.179Z,10.57
2019-04-07T00:02:23.458Z,9.87
2019-04-07T00:04:34.289Z,10.17
2019-04-07T00:06:45.343Z,11.93
2019-04-07T00:08:56.553Z,11.20
2019-04-07T00:11:07.405Z,11.70
2019-04-07T00:13:18.401Z,11.30
2019-04-07T00:15:29.404Z,11.10
2019-04-07T00:17:40.309Z,11.50
2019-04-07T00:19:51.209Z,12.23
2019-04-07T00:22:02.083Z,11.17
2019-04-07T00:24:13.601Z,11.30
2019-04-07T00:26:27.145Z,11.00
2019-04-07T00:28:44.049Z,10.03
2019-04-07T00:30:54.978Z,10.80
2019-04-07T00:33:09.632Z,11.67
2019-04-07T00:35:26.855Z,10.40
2019-04-07T00:37:41.757Z,11.53
2019-04-07T00:39:53.258Z,10.70
2019-04-07T00:42:04.206Z,10.33
2019-04-07T00:44:15.604Z,9.87
2019-04-07T00:46:26.853Z,10.40
2019-04-07T00:48:37.763Z,10.77
2019-04-07T00:50:48.762Z,11.50
2019-04-07T00:53:00.222Z,12.37
2019-04-07T00:55:11.642Z,13.13
2019-04-07T00:57:35.386Z,12.37
2019-04-07T00:59:46.437Z,12.47
2019-04-07T01:01:57.960Z,12.07
2019-04-07T01:04:08.974Z,12.43
2019-04-07T01:06:19.773Z,11.97
2019-04-07T01:08:30.987Z,11.97
2019-04-07T01:10:42.703Z,13.10
2019-04-07T01:12:54.017Z,12.77
2019-04-07T01:15:07.665Z,12.73
2019-04-07T01:17:19.079Z,12.50
2019-04-07T01:19:30.037Z,12.43
2019-04-07T01:21:41.012Z,12.00
2019-04-07T01:23:54.401Z,12.17
2019-04-07T01:26:05.443Z,12.10
2019-04-07T01:28:16.468Z,12.83
2019-04-07T01:30:27.353Z,11.80
2019-04-07T01:32:38.856Z,11.50
2019-04-07T01:34:50.436Z,10.90
2019-04-07T01:37:01.366Z,10.43
2019-04-07T01:39:12.992Z,11.17
2019-04-07T01:41:31.798Z,10.33
2019-04-07T01:43:44.727Z,11.50
2019-04-07T01:46:01.045Z,10.60
2019-04-07T01:48:16.881Z,10.77
2019-04-07T01:50:40.759Z,10.27
2019-04-07T01:53:08.953Z,10.53
2019-04-07T01:55:38.946Z,10.67
2019-04-07T01:58:04.022Z,10.50
2019-04-07T02:00:29.869Z,9.63
2019-04-07T02:02:52.012Z,9.33
2019-04-07T02:05:11.104Z,10.13
2019-04-07T02:07:35.928Z,10.37
2019-04-07T02:09:51.434Z,9.90
2019-04-07T02:12:16.078Z,9.67
2019-04-07T02:14:41.154Z,10.47
2019-04-07T02:16:59.897Z,9.53
2019-04-07T02:19:15.402Z,10.40
2019-04-07T02:21:44.983Z,9.23
2019-04-07T02:24:04.782Z,9.50
2019-04-07T02:26:34.600Z,9.43
2019-04-07T02:28:50.407Z,9.10
2019-04-07T02:31:21.126Z,8.80
2019-04-07T02:33:34.967Z,8.37
2019-04-07T02:36:17.118Z,8.73
2019-04-07T02:38:25.104Z,8.53
2019-04-07T02:40:55.727Z,9.63
2019-04-07T02:43:25.343Z,9.03
2019-04-07T02:45:38.368Z,8.40
2019-04-07T02:47:57.746Z,8.27
2019-04-07T02:50:14.163Z,7.77
2019-04-07T02:52:30.847Z,8.33
2019-04-07T02:54:44.567Z,8.17
2019-04-07T02:56:57.312Z,8.07
2019-04-07T02:59:10.140Z,8.13
2019-04-07T03:01:23.000Z,8.27
2019-04-07T03:03:39.501Z,7.67
2019-04-07T03:06:10.049Z,8.00
2019-04-07T03:08:38.267Z,7.60
2019-04-07T03:11:02.214Z,6.87
2019-04-07T03:13:21.248Z,7.50
2019-04-07T03:15:51.238Z,7.60
2019-04-07T03:18:07.008Z,6.93
2019-04-07T03:20:29.596Z,6.63
2019-04-07T03:23:00.221Z,6.33
2019-04-07T03:25:19.171Z,6.60
2019-04-07T03:27:48.766Z,7.70
2019-04-07T03:30:01.757Z,7.63
2019-04-07T03:32:33.801Z,7.27
2019-04-07T03:34:51.345Z,7.90
2019-04-07T03:37:23.963Z,7.80
2019-04-07T03:39:27.028Z,7.13
2019-04-07T03:41:45.881Z,5.60
2019-04-07T03:43:59.244Z,5.60
2019-04-07T03:46:12.210Z,6.27
2019-04-07T03:48:37.001Z,6.33
2019-04-07T03:51:09.133Z,5.80
2019-04-07T03:53:24.362Z,6.87
2019-04-07T03:55:40.903Z,6.93
2019-04-07T03:58:00.179Z,6.60
2019-04-07T04:00:39.631Z,7.00
2019-04-07T04:02:52.632Z,5.47
2019-04-07T04:05:12.439Z,6.00
2019-04-07T04:07:31.444Z,5.97
2019-04-07T04:09:45.895Z,6.37
2019-04-07T04:11:58.781Z,6.43
2019-04-07T04:14:12.027Z,6.33
2019-04-07T04:16:23.460Z,6.83
2019-04-07T04:18:35.138Z,6.30
2019-04-07T04:20:46.403Z,6.43
2019-04-07T04:22:58.238Z,6.97
2019-04-07T04:25:10.550Z,6.93
2019-04-07T04:27:21.670Z,6.80
2019-04-07T04:29:33.231Z,6.43
2019-04-07T04:31:44.285Z,6.10
2019-04-07T04:33:55.645Z,6.23
2019-04-07T04:36:06.695Z,6.67
2019-04-07T04:38:20.526Z,6.50
2019-04-07T04:40:32.306Z,6.70
2019-04-07T04:42:44.316Z,6.30
2019-04-07T04:44:55.559Z,6.97
2019-04-07T04:47:06.545Z,7.20
2019-04-07T04:49:17.393Z,6.27
2019-04-07T04:51:29.480Z,6.10
2019-04-07T04:53:40.478Z,6.37
2019-04-07T04:55:51.534Z,6.57
2019-04-07T04:58:02.432Z,6.17
2019-04-07T05:00:13.586Z,6.40
2019-04-07T05:02:24.503Z,6.90
2019-04-07T05:04:35.585Z,6.73
2019-04-07T05:06:46.561Z,6.80
2019-04-07T05:08:57.767Z,6.20
2019-04-07T05:11:09.149Z,6.20
2019-04-07T05:13:20.121Z,6.27
2019-04-07T05:15:32.932Z,6.57
2019-04-07T05:17:43.794Z,7.00
2019-04-07T05:19:54.994Z,7.13
2019-04-07T05:22:06.093Z,5.90
2019-04-07T05:24:16.972Z,5.33
2019-04-07T05:26:27.881Z,4.77
2019-04-07T05:28:38.918Z,5.33
2019-04-07T05:30:50.376Z,5.63
2019-04-07T05:33:01.238Z,5.63
2019-04-07T05:35:12.128Z,5.67
2019-04-07T05:37:23.062Z,6.03
2019-04-07T05:39:33.922Z,5.73
2019-04-07T05:41:45.069Z,5.53
2019-04-07T05:43:55.950Z,5.87
2019-04-07T05:46:08.007Z,6.17
2019-04-07T05:48:20.544Z,6.00
2019-04-07T05:50:31.854Z,6.03
2019-04-07T05:52:43.298Z,6.07
2019-04-07T05:54:54.541Z,6.70
2019-04-07T05:57:07.449Z,7.90
2019-04-07T05:59:18.317Z,7.43
2019-04-07T06:01:29.150Z,7.93
2019-04-07T06:03:42.832Z,8.00
2019-04-07T06:05:52.887Z,8.43
2019-04-07T06:08:21.279Z,8.30
2019-04-07T06:10:16.768Z,8.00
2019-04-07T06:12:27.560Z,7.70
2019-04-07T06:14:39.116Z,7.50
2019-04-07T06:16:53.532Z,7.83
2019-04-07T06:19:05.428Z,7.23
2019-04-07T06:21:16.239Z,8.20
2019-04-07T06:23:29.828Z,8.20
2019-04-07T06:25:42.348Z,8.23
2019-04-07T06:27:54.291Z,8.30
2019-04-07T06:30:08.445Z,7.40
2019-04-07T06:32:19.392Z,10.33
2019-04-07T06:34:30.330Z,9.60
2019-04-07T06:36:41.264Z,10.40
2019-04-07T06:38:52.895Z,12.97
2019-04-07T06:41:04.692Z,11.10
2019-04-07T06:43:15.722Z,10.47
2019-04-07T06:45:28.535Z,10.90
2019-04-07T06:47:53.528Z,11.07
2019-04-07T06:50:15.407Z,12.80
2019-04-07T06:52:35.458Z,12.17
2019-04-07T06:54:56.206Z,11.63
2019-04-07T06:57:21.353Z,12.60
2019-04-07T06:59:34.123Z,12.70
2019-04-07T07:01:50.228Z,12.57
2019-04-07T07:04:03.195Z,12.60
2019-04-07T07:06:24.138Z,13.17
2019-04-07T07:08:45.842Z,13.27
2019-04-07T07:11:24.663Z,12.97
2019-04-07T07:13:34.265Z,13.97
2019-04-07T07:15:58.519Z,14.20
2019-04-07T07:18:19.976Z,12.80
2019-04-07T07:20:41.470Z,12.73
2019-04-07T07:23:00.780Z,11.90
2019-04-07T07:25:12.395Z,11.90
2019-04-07T07:27:24.128Z,12.10
2019-04-07T07:29:36.976Z,13.00
2019-04-07T07:31:48.891Z,12.50
2019-04-07T07:34:00.964Z,11.90
2019-04-07T07:36:12.384Z,12.13
2019-04-07T07:38:23.349Z,13.50
2019-04-07T07:40:35.119Z,12.67
2019-04-07T07:42:49.023Z,13.60
2019-04-07T07:44:59.018Z,13.07
2019-04-07T07:47:10.281Z,13.40
2019-04-07T07:49:21.427Z,12.70
2019-04-07T07:51:32.386Z,12.83
2019-04-07T07:53:43.254Z,12.60
2019-04-07T07:55:54.389Z,13.17
2019-04-07T07:58:05.247Z,12.90
2019-04-07T08:00:16.971Z,12.17
2019-04-07T08:02:29.836Z,12.23
2019-04-07T08:04:40.699Z,11.40
2019-04-07T08:06:52.201Z,11.03
2019-04-07T08:09:11.993Z,12.10
2019-04-07T08:11:18.762Z,11.97
2019-04-07T08:13:30.005Z,12.40
2019-04-07T08:15:41.588Z,10.70
2019-04-07T08:17:53.127Z,13.13
2019-04-07T08:20:05.681Z,11.57
2019-04-07T08:22:27.659Z,12.67
2019-04-07T08:24:29.441Z,12.07
2019-04-07T08:26:40.479Z,11.03
2019-04-07T08:28:51.473Z,8.60
2019-04-07T08:31:02.556Z,10.93
2019-04-07T08:33:13.431Z,13.00
2019-04-07T08:35:24.390Z,12.47
2019-04-07T08:37:36.381Z,12.17
2019-04-07T08:39:47.547Z,8.67
2019-04-07T08:41:59.392Z,9.30
2019-04-07T08:44:10.521Z,9.43
2019-04-07T08:46:21.904Z,9.50
2019-04-07T08:48:33.309Z,9.20
2019-04-07T08:50:44.378Z,10.10
2019-04-07T08:52:55.465Z,10.10
2019-04-07T08:55:07.315Z,8.57
2019-04-07T08:57:18.352Z,8.37
2019-04-07T08:59:29.285Z,7.97
2019-04-07T09:01:40.489Z,8.33
2019-04-07T09:03:51.904Z,8.83
2019-04-07T09:06:04.620Z,8.13
2019-04-07T09:08:16.065Z,7.63
2019-04-07T09:10:38.233Z,7.53
2019-04-07T09:12:49.874Z,8.30
2019-04-07T09:15:03.953Z,7.87
2019-04-07T09:17:32.177Z,7.50
2019-04-07T09:19:42.412Z,7.43
2019-04-07T09:22:01.016Z,7.53
2019-04-07T09:24:32.229Z,7.80
2019-04-07T09:26:47.791Z,7.77
2019-04-07T09:29:00.811Z,7.80
2019-04-07T09:31:19.646Z,7.50
2019-04-07T09:33:34.790Z,8.07
2019-04-07T09:35:47.606Z,8.13
2019-04-07T09:38:00.496Z,8.53
2019-04-07T09:40:17.427Z,7.90
2019-04-07T09:42:29.059Z,7.50
2019-04-07T09:44:53.926Z,7.93
2019-04-07T09:47:15.791Z,7.60
2019-04-07T09:49:32.962Z,8.27
2019-04-07T09:51:46.206Z,8.73
2019-04-07T09:54:17.642Z,7.57
2019-04-07T09:56:46.148Z,8.00
2019-04-07T09:59:19.053Z,7.40
2019-04-07T10:01:44.562Z,7.53
2019-04-07T10:04:03.256Z,7.60
2019-04-07T10:06:32.585Z,7.90
2019-04-07T10:08:48.066Z,7.40
2019-04-07T10:11:00.805Z,7.70
2019-04-07T10:13:13.622Z,7.47
2019-04-07T10:15:42.062Z,8.23
2019-04-07T10:18:11.603Z,7.53
2019-04-07T10:20:40.876Z,7.67
2019-04-07T10:23:10.817Z,6.63
2019-04-07T10:25:30.123Z,7.50
2019-04-07T10:27:52.113Z,7.20
2019-04-07T10:30:08.019Z,7.20
2019-04-07T10:32:23.833Z,7.20
2019-04-07T10:34:46.059Z,8.07
2019-04-07T10:37:08.099Z,8.37
2019-04-07T10:39:21.003Z,8.37
2019-04-07T10:41:37.147Z,7.30
2019-04-07T10:44:08.497Z,7.43
2019-04-07T10:46:21.572Z,7.90
2019-04-07T10:48:34.448Z,7.03
2019-04-07T10:50:50.248Z,7.87
2019-04-07T10:53:03.782Z,8.40
2019-04-07T10:55:20.601Z,7.33
2019-04-07T10:57:52.423Z,6.37
2019-04-07T11:00:25.832Z,6.80
2019-04-07T11:02:39.300Z,6.10
2019-04-07T11:04:55.271Z,6.10
2019-04-07T11:07:10.973Z,6.93
2019-04-07T11:09:30.008Z,6.57
2019-04-07T11:11:58.793Z,6.87
2019-04-07T11:14:26.986Z,7.03
2019-04-07T11:16:46.406Z,7.53
2019-04-07T11:19:05.589Z,6.90
2019-04-07T11:21:30.483Z,7.93
2019-04-07T11:23:46.866Z,8.10
2019-04-07T11:26:08.861Z,7.23
2019-04-07T11:28:30.645Z,6.50
2019-04-07T11:31:00.481Z,6.60
2019-04-07T11:33:30.143Z,7.03
2019-04-07T11:35:59.619Z,7.67
2019-04-07T11:38:21.299Z,7.67
2019-04-07T11:40:44.039Z,7.53
2019-04-07T11:42:49.081Z,7.73
2019-04-07T11:45:08.214Z,8.23
2019-04-07T11:47:36.418Z,7.00
2019-04-07T11:50:01.431Z,6.37
2019-04-07T11:52:14.798Z,6.00
2019-04-07T11:54:27.730Z,6.67
2019-04-07T11:56:41.544Z,6.20
2019-04-07T11:59:03.446Z,6.40
2019-04-07T12:01:22.859Z,6.73
2019-04-07T12:03:48.008Z,7.00
2019-04-07T12:06:03.690Z,7.00
2019-04-07T12:08:24.559Z,6.50
2019-04-07T12:10:58.551Z,6.90
2019-04-07T12:13:04.738Z,7.67
2019-04-07T12:15:34.717Z,6.90
2019-04-07T12:17:47.663Z,6.53
2019-04-07T12:20:09.661Z,6.23
2019-04-07T12:22:42.603Z,6.47
2019-04-07T12:25:03.256Z,6.97
2019-04-07T12:27:34.584Z,7.10
2019-04-07T12:30:04.345Z,7.37
2019-04-07T12:32:23.862Z,7.13
2019-04-07T12:34:55.109Z,7.77
2019-04-07T12:37:08.037Z,6.97
2019-04-07T12:39:34.971Z,7.27
2019-04-07T12:42:07.135Z,7.20
2019-04-07T12:44:20.098Z,4.13
2019-04-07T12:46:36.453Z,2.37
2019-04-07T12:49:08.461Z,2.80
2019-04-07T12:51:37.578Z,2.53
2019-04-07T12:54:07.037Z,3.00
2019-04-07T12:56:23.143Z,2.70
2019-04-07T12:58:52.789Z,2.27
2019-04-07T13:01:21.173Z,2.70
2019-04-07T13:03:34.444Z,2.97
2019-04-07T13:06:06.383Z,2.63
2019-04-07T13:08:22.510Z,2.67
2019-04-07T13:10:42.954Z,2.53
2019-04-07T13:13:02.618Z,3.00
2019-04-07T13:15:19.365Z,2.97
2019-04-07T13:17:49.476Z,3.10
2019-04-07T13:20:08.337Z,3.00
2019-04-07T13:22:21.549Z,3.07
2019-04-07T13:24:45.469Z,2.60
2019-04-07T13:27:06.045Z,2.90
2019-04-07T13:29:24.840Z,3.03
2019-04-07T13:31:40.426Z,2.60
2019-04-07T13:33:53.399Z,2.90
2019-04-07T13:36:13.515Z,2.90
2019-04-07T13:38:26.325Z,3.30
2019-04-07T13:40:57.611Z,3.43
2019-04-07T13:43:11.143Z,3.03
2019-04-07T13:45:44.668Z,3.30
2019-04-07T13:47:55.715Z,2.97
2019-04-07T13:50:14.715Z,2.80
2019-04-07T13:52:41.516Z,2.93
2019-04-07T13:54:54.764Z,2.70
2019-04-07T13:57:13.426Z,3.33
2019-04-07T13:59:44.092Z,2.77
2019-04-07T14:01:55.859Z,2.80
2019-04-07T14:04:08.927Z,2.30
2019-04-07T14:06:34.012Z,2.70
2019-04-07T14:09:04.164Z,3.10
2019-04-07T14:11:17.624Z,3.17
2019-04-07T14:13:35.665Z,3.30
2019-04-07T14:15:54.134Z,3.07
2019-04-07T14:18:19.215Z,3.33
2019-04-07T14:20:31.958Z,3.27
2019-04-07T14:22:47.733Z,4.23
2019-04-07T14:25:10.141Z,4.77
2019-04-07T14:27:26.343Z,3.40
2019-04-07T14:29:39.513Z,3.17
2019-04-07T14:31:55.574Z,3.77
2019-04-07T14:34:08.527Z,2.83
2019-04-07T14:36:25.015Z,3.07
2019-04-07T14:38:47.655Z,2.67
2019-04-07T14:41:15.951Z,3.00
2019-04-07T14:43:29.853Z,3.10
2019-04-07T14:45:58.026Z,2.87
2019-04-07T14:48:13.753Z,2.90
2019-04-07T14:50:33.152Z,3.00
2019-04-07T14:55:35.674Z,2.80
2019-04-07T14:58:04.506Z,2.83
2019-04-07T15:00:32.830Z,3.07
2019-04-07T15:02:44.437Z,3.13
2019-04-07T15:05:00.243Z,2.80
2019-04-07T15:07:30.021Z,3.03
2019-04-07T15:09:48.789Z,2.93
2019-04-07T15:12:14.761Z,3.07
2019-04-07T15:14:17.036Z,3.20
2019-04-07T15:16:28.559Z,3.07
2019-04-07T15:18:40.012Z,2.83
2019-04-07T15:20:51.667Z,2.90
2019-04-07T15:23:02.910Z,3.13
2019-04-07T15:25:13.905Z,2.93
2019-04-07T15:27:25.831Z,3.13
2019-04-07T15:29:41.342Z,3.10
2019-04-07T15:31:51.613Z,2.60
2019-04-07T15:34:06.506Z,2.60
2019-04-07T15:36:18.713Z,2.70
2019-04-07T15:38:28.640Z,2.73
2019-04-07T15:40:39.724Z,2.23
2019-04-07T15:42:51.153Z,3.10
2019-04-07T15:45:04.898Z,3.17
2019-04-07T15:47:16.883Z,3.07
2019-04-07T15:49:29.214Z,2.90
2019-04-07T15:51:41.632Z,2.60
2019-04-07T15:53:53.242Z,3.20
2019-04-07T15:56:06.560Z,3.50
2019-04-07T15:58:17.173Z,3.43
2019-04-07T16:00:28.328Z,3.47
2019-04-07T16:02:42.171Z,2.80
2019-04-07T16:04:52.420Z,3.33
2019-04-07T16:07:03.564Z,3.83
2019-04-07T16:09:29.611Z,3.13
2019-04-07T16:11:29.412Z,3.57
2019-04-07T16:13:40.252Z,3.00
2019-04-07T16:15:55.204Z,3.77
2019-04-07T16:18:07.633Z,2.87
2019-04-07T16:20:24.524Z,5.17
2019-04-07T16:22:31.994Z,4.00
2019-04-07T16:24:42.903Z,4.20
2019-04-07T16:26:54.652Z,3.90
2019-04-07T16:29:07.781Z,3.60
2019-04-07T16:31:19.834Z,3.93
2019-04-07T16:33:34.697Z,4.13
2019-04-07T16:35:49.060Z,3.93
2019-04-07T16:37:58.406Z,4.17
2019-04-07T16:40:10.795Z,4.17
2019-04-07T16:42:22.566Z,4.40
2019-04-07T16:44:36.381Z,4.10
2019-04-07T16:46:46.212Z,4.83
2019-04-07T16:48:58.463Z,4.47
2019-04-07T16:51:09.761Z,4.50
2019-04-07T16:53:20.641Z,3.77
2019-04-07T16:55:34.935Z,5.00
2019-04-07T16:57:46.238Z,4.70
2019-04-07T16:59:58.341Z,5.13
2019-04-07T17:02:10.247Z,5.07
2019-04-07T17:04:21.314Z,4.47
2019-04-07T17:06:35.633Z,4.97
2019-04-07T17:08:45.443Z,4.27
2019-04-07T17:10:56.402Z,5.50
2019-04-07T17:13:16.998Z,5.33
2019-04-07T17:15:21.149Z,5.90
2019-04-07T17:17:32.563Z,5.07
2019-04-07T17:19:43.689Z,4.37
2019-04-07T17:21:55.470Z,4.37
2019-04-07T17:24:07.596Z,4.57
2019-04-07T17:26:20.387Z,4.60
2019-04-07T17:28:32.413Z,4.30
2019-04-07T17:30:45.243Z,4.73
2019-04-07T17:32:56.602Z,4.70
2019-04-07T17:35:08.316Z,7.47
2019-04-07T17:37:20.055Z,6.53
2019-04-07T17:39:45.071Z,6.87
2019-04-07T17:41:57.632Z,5.73
2019-04-07T17:44:23.024Z,5.70
2019-04-07T17:46:37.237Z,5.30
2019-04-07T17:48:56.757Z,5.23
2019-04-07T17:51:13.920Z,4.80
2019-04-07T17:53:26.719Z,5.90
2019-04-07T17:55:57.241Z,5.63
2019-04-07T17:58:22.172Z,5.00
2019-04-07T18:00:53.274Z,4.90
2019-04-07T18:03:24.360Z,4.13
2019-04-07T18:05:40.704Z,4.80
2019-04-07T18:07:59.923Z,5.17
2019-04-07T18:10:22.540Z,5.10
2019-04-07T18:12:49.776Z,5.17
2019-04-07T18:15:07.148Z,4.70
2019-04-07T18:17:32.223Z,5.20
2019-04-07T18:19:51.474Z,4.77
2019-04-07T18:22:23.546Z,4.70
2019-04-07T18:24:48.747Z,4.50
2019-04-07T18:27:01.962Z,3.67
2019-04-07T18:29:14.778Z,3.93
2019-04-07T18:31:27.515Z,4.13
2019-04-07T18:33:50.145Z,3.47
2019-04-07T18:36:05.010Z,3.70
2019-04-07T18:38:33.094Z,3.93
2019-04-07T18:41:08.142Z,4.20
2019-04-07T18:43:23.404Z,4.23
2019-04-07T18:45:45.929Z,4.30
2019-04-07T18:47:58.158Z,3.80
2019-04-07T18:50:12.183Z,3.60
2019-04-07T18:52:34.229Z,3.97
2019-04-07T18:54:50.044Z,4.03
2019-04-07T18:57:05.780Z,3.07
2019-04-07T18:59:23.171Z,3.80
2019-04-07T19:01:39.516Z,4.17
2019-04-07T19:04:10.236Z,4.83
2019-04-07T19:06:26.018Z,4.13
2019-04-07T19:08:58.847Z,5.90
2019-04-07T19:11:24.322Z,5.60
2019-04-07T19:13:37.305Z,5.30
2019-04-07T19:15:51.142Z,5.47
2019-04-07T19:18:16.260Z,5.73
2019-04-07T19:20:38.332Z,5.70
2019-04-07T19:23:02.400Z,6.33
2019-04-07T19:25:21.623Z,6.70
2019-04-07T19:27:46.092Z,6.23
2019-04-07T19:30:13.863Z,6.97
2019-04-07T19:32:25.656Z,7.70
2019-04-07T19:34:47.426Z,8.13
2019-04-07T19:37:17.969Z,9.17
2019-04-07T19:39:38.859Z,10.77
2019-04-07T19:42:09.028Z,11.57
2019-04-07T19:44:35.768Z,12.27
2019-04-07T19:47:00.060Z,12.00
2019-04-07T19:49:15.642Z,13.73
2019-04-07T19:51:29.260Z,14.30
2019-04-07T19:53:44.225Z,12.90
2019-04-07T19:56:13.044Z,13.77
2019-04-07T19:58:39.861Z,12.27
2019-04-07T20:00:56.854Z,13.17
2019-04-07T20:03:13.360Z,12.37
2019-04-07T20:05:43.163Z,12.23
2019-04-07T20:07:56.150Z,12.23
2019-04-07T20:10:27.003Z,12.93
2019-04-07T20:12:52.612Z,12.10
2019-04-07T20:15:18.294Z,11.80
2019-04-07T20:17:45.326Z,12.17
2019-04-07T20:19:58.149Z,10.90
2019-04-07T20:22:24.982Z,9.93
2019-04-07T20:24:38.459Z,10.10
2019-04-07T20:27:08.813Z,11.17
2019-04-07T20:29:21.637Z,10.37
2019-04-07T20:31:40.786Z,11.57
2019-04-07T20:34:11.866Z,11.10
2019-04-07T20:36:26.400Z,10.23
2019-04-07T20:38:40.175Z,10.20
2019-04-07T20:40:59.644Z,10.10
2019-04-07T20:43:15.250Z,10.50
2019-04-07T20:45:37.045Z,10.40
2019-04-07T20:48:07.286Z,8.93
2019-04-07T20:50:20.125Z,10.20
2019-04-07T20:52:50.186Z,9.50
2019-04-07T20:55:21.169Z,9.80
2019-04-07T20:57:54.033Z,9.70
2019-04-07T21:00:16.545Z,9.43
2019-04-07T21:02:34.051Z,9.33
2019-04-07T21:05:05.211Z,9.20
2019-04-07T21:07:18.548Z,9.00
2019-04-07T21:09:43.837Z,8.83
2019-04-07T21:12:15.165Z,8.23
2019-04-07T21:14:45.326Z,8.07
2019-04-07T21:17:02.413Z,9.07
2019-04-07T21:19:18.789Z,8.63
2019-04-07T21:21:32.417Z,8.00
2019-04-07T21:23:47.132Z,8.37
2019-04-07T21:26:01.546Z,8.17
2019-04-07T21:28:14.295Z,7.80
2019-04-07T21:30:36.788Z,7.53
2019-04-07T21:33:05.177Z,7.70
2019-04-07T21:35:21.337Z,7.30
2019-04-07T21:37:51.932Z,7.40
2019-04-07T21:40:22.972Z,7.90
2019-04-07T21:42:36.040Z,8.30
2019-04-07T21:44:48.971Z,7.40
2019-04-07T21:47:04.458Z,7.50
2019-04-07T21:49:17.488Z,7.40
2019-04-07T21:51:39.842Z,8.03
2019-04-07T21:54:02.200Z,6.50
2019-04-07T21:56:15.817Z,7.37
2019-04-07T21:58:34.576Z,7.83
2019-04-07T22:00:51.076Z,6.70
2019-04-07T22:03:15.825Z,7.47
2019-04-07T22:05:28.697Z,7.37
2019-04-07T22:07:53.621Z,7.53
2019-04-07T22:10:10.020Z,7.43
2019-04-07T22:12:25.692Z,7.50
2019-04-07T22:14:37.452Z,6.57
2019-04-07T22:16:47.126Z,6.93
2019-04-07T22:18:58.794Z,7.17
2019-04-07T22:21:09.805Z,7.17
2019-04-07T22:23:21.573Z,7.57
2019-04-07T22:25:38.338Z,7.10
2019-04-07T22:27:49.224Z,6.90
2019-04-07T22:30:02.181Z,7.23
2019-04-07T22:32:17.474Z,6.67
2019-04-07T22:34:29.792Z,6.03
2019-04-07T22:36:39.168Z,6.97
2019-04-07T22:38:54.406Z,6.33
2019-04-07T22:41:06.707Z,6.40
2019-04-07T22:43:17.062Z,6.60
2019-04-07T22:45:30.248Z,6.83
2019-04-07T22:47:41.568Z,5.87
2019-04-07T22:49:52.726Z,5.87
2019-04-07T22:52:03.788Z,6.33
2019-04-07T22:54:14.734Z,6.13
2019-04-07T22:56:25.691Z,6.27
2019-04-07T22:58:38.452Z,6.00
2019-04-07T23:00:50.610Z,5.73
2019-04-07T23:03:03.718Z,5.73
2019-04-07T23:05:14.817Z,5.70
2019-04-07T23:07:25.769Z,5.43
2019-04-07T23:09:37.008Z,5.07
2019-04-07T23:11:48.227Z,5.30
2019-04-07T23:13:59.392Z,5.37
2019-04-07T23:16:13.868Z,5.10
2019-04-07T23:18:22.993Z,5.57
2019-04-07T23:20:33.953Z,5.13
2019-04-07T23:22:44.861Z,5.30
2019-04-07T23:24:55.744Z,4.47
2019-04-07T23:27:06.589Z,5.00
2019-04-07T23:29:17.719Z,5.13
2019-04-07T23:31:30.691Z,4.93
2019-04-07T23:33:41.821Z,4.93
2019-04-07T23:35:53.302Z,4.40
2019-04-07T23:38:04.275Z,4.87
2019-04-07T23:40:16.229Z,4.60
2019-04-07T23:42:29.079Z,5.00
2019-04-07T23:44:39.964Z,4.67
2019-04-07T23:46:50.948Z,5.13
2019-04-07T23:49:01.837Z,5.43
2019-04-07T23:51:12.698Z,4.80
2019-04-07T23:54:02.256Z,5.20
2019-04-07T23:56:13.221Z,5.00
2019-04-07T23:58:25.037Z,4.93
